createdAt,value
2023-02-04T00:13:20.228Z,0.80
2023-02-04T00:33:19.929Z,1.60
2023-02-04T00:53:19.647Z,0.50
2023-02-04T01:13:19.439Z,0.60
2023-02-04T01:33:19.140Z,0.80
2023-02-04T01:53:18.864Z,0.60
2023-02-04T02:13:18.656Z,0.60
2023-02-04T02:33:18.311Z,1.20
2023-02-04T02:53:18.073Z,1.60
2023-02-04T03:13:17.756Z,0.50
2023-02-04T03:33:17.491Z,1.20
2023-02-04T03:53:17.223Z,2.30
2023-02-04T04:13:16.957Z,1.20
2023-02-04T04:33:16.714Z,1.20
2023-02-04T04:53:16.415Z,1.40
2023-02-04T05:13:16.148Z,1.50
2023-02-04T05:33:15.897Z,1.70
2023-02-04T05:54:15.589Z,1.8
2023-02-04T06:14:15.322Z,2.3
2023-02-04T06:39:04.349Z,3.0
2023-02-04T06:59:04.079Z,2.6
2023-02-04T07:19:03.822Z,3.1
2023-02-04T07:39:03.553Z,4.0
2023-02-04T07:59:03.261Z,7.7
2023-02-04T08:19:03.024Z,9.7
2023-02-04T08:39:02.728Z,10.7
2023-02-04T08:59:02.497Z,9.8
2023-02-04T09:19:02.230Z,10.1
2023-02-04T09:39:01.969Z,7.1
2023-02-04T09:59:01.690Z,5.2
2023-02-04T10:19:01.419Z,5.8
2023-02-04T10:39:01.190Z,6.3
2023-02-04T10:59:00.883Z,4.7
2023-02-04T11:19:00.618Z,5.4
2023-02-04T11:39:00.332Z,2.3
2023-02-04T11:59:00.055Z,3.4
2023-02-04T12:19:07.314Z,4.7
2023-02-04T12:38:59.666Z,3.2
2023-02-04T12:58:59.387Z,2.5
2023-02-04T13:18:58.984Z,2.7
2023-02-04T13:38:58.717Z,2.4
2023-02-04T13:58:58.452Z,2.6
2023-02-04T14:18:58.198Z,2.3
2023-02-04T14:38:57.921Z,3.0
2023-02-04T14:58:57.684Z,2.0
2023-02-04T15:18:57.393Z,1.9
2023-02-04T15:38:57.104Z,2.9
2023-02-04T15:58:56.860Z,3.1
2023-02-04T16:18:56.561Z,3.8
2023-02-04T16:38:56.297Z,3.2
2023-02-04T16:58:56.024Z,5.9
2023-02-04T17:18:55.823Z,6.2
2023-02-04T17:38:55.511Z,18.5
2023-02-04T17:58:55.241Z,7.2
2023-02-04T18:18:55.006Z,5.0
2023-02-04T18:38:54.714Z,5.0
2023-02-04T18:58:54.424Z,7.3
2023-02-04T19:18:54.195Z,9.6
2023-02-04T19:38:53.898Z,5.9
2023-02-04T19:58:53.631Z,7.0
2023-02-04T20:18:53.383Z,6.9
2023-02-04T20:38:53.137Z,4.6
2023-02-04T20:58:52.878Z,3.4
2023-02-04T21:18:52.573Z,1.5
2023-02-04T21:38:52.325Z,3.2
2023-02-04T21:58:52.037Z,2.9
2023-02-04T22:18:51.804Z,3.0
2023-02-04T22:38:51.529Z,4.5
2023-02-04T22:58:52.942Z,4.7
2023-02-04T23:18:51.035Z,2.9
2023-02-04T23:38:50.716Z,3.8
2023-02-04T23:58:50.457Z,2.2
